Time;durP1;ratioP1;P1;durP2;ratioP2;P2;SDS_P1;SDS_P2;PMS_P1;PMS_P2;Temp;Humidity;BMP_temperature;BMP_pressure;BME280_temperature;BME280_humidity;BME280_pressure;Samples;Min_cycle;Max_cycle;Signal;HPM_P1;HPM_P2
2020/12/09 00:01:18;;;;;;;15.75;10.27;;;;;9.80;100602.00;;;;5091534;28;20672;-77
2020/12/09 00:03:45;;;;;;;15.98;9.98;;;;;9.80;100595.00;;;;5087749;28;20193;-77
2020/12/09 00:06:12;;;;;;;14.13;9.93;;;;;9.90;100596.00;;;;5107892;28;20209;-77
2020/12/09 00:08:39;;;;;;;15.48;10.18;;;;;9.80;100596.00;;;;5094086;28;20202;-77
2020/12/09 00:11:07;;;;;;;14.82;9.93;;;;;9.90;100601.00;;;;5093838;28;20586;-77
2020/12/09 00:13:35;;;;;;;15.27;10.07;;;;;9.90;100604.00;;;;5094446;28;20220;-78
2020/12/09 00:16:02;;;;;;;14.00;9.00;;;;;9.80;100596.00;;;;5090494;28;20206;-77
2020/12/09 00:18:28;;;;;;;14.50;8.82;;;;;9.90;100593.00;;;;5098248;28;20198;-77
2020/12/09 00:20:55;;;;;;;14.95;9.57;;;;;9.90;100596.00;;;;5100872;28;20194;-77
2020/12/09 00:23:22;;;;;;;12.82;8.63;;;;;9.90;100599.00;;;;5095059;28;20687;-77
2020/12/09 00:25:49;;;;;;;15.00;9.32;;;;;9.90;100610.00;;;;5090201;28;20195;-78
2020/12/09 00:28:15;;;;;;;15.20;9.35;;;;;9.90;100611.00;;;;5093220;28;20240;-77
2020/12/09 00:30:43;;;;;;;14.23;9.35;;;;;9.90;100614.00;;;;5095586;28;20200;-77
2020/12/09 00:33:11;;;;;;;15.48;9.52;;;;;9.90;100616.00;;;;5097771;28;20206;-77
2020/12/09 00:35:38;;;;;;;15.07;9.48;;;;;9.90;100613.00;;;;5089063;28;20194;-78
2020/12/09 00:38:07;;;;;;;15.43;8.88;;;;;9.90;100621.00;;;;5106857;28;20205;-77
2020/12/09 00:40:34;;;;;;;16.63;9.95;;;;;9.90;100613.00;;;;5106830;28;20282;-77
2020/12/09 00:43:01;;;;;;;13.80;8.77;;;;;9.90;100618.00;;;;5099790;28;20722;-77
2020/12/09 00:45:28;;;;;;;13.85;8.10;;;;;9.90;100607.00;;;;5103218;28;20206;-77
2020/12/09 00:47:55;;;;;;;12.93;7.57;;;;;9.90;100614.00;;;;5109637;28;20745;-77
2020/12/09 00:50:28;;;;;;;15.40;8.73;;;;;9.90;100609.00;;;;5108677;28;20205;-77
2020/12/09 00:52:55;;;;;;;12.18;8.23;;;;;9.90;100607.00;;;;5097747;28;20221;-78
2020/12/09 00:55:22;;;;;;;13.02;8.93;;;;;9.90;100607.00;;;;5088482;28;20190;-77
2020/12/09 00:57:49;;;;;;;11.30;7.95;;;;;9.90;100619.00;;;;5078631;28;20237;-77
2020/12/09 01:00:16;;;;;;;15.05;9.48;;;;;9.90;100610.00;;;;5089614;28;20298;-77
2020/12/09 01:02:42;;;;;;;13.68;8.85;;;;;9.90;100610.00;;;;5097600;28;20654;-77
2020/12/09 01:05:11;;;;;;;13.02;8.18;;;;;9.80;100612.00;;;;5102268;28;20280;-77
2020/12/09 01:07:38;;;;;;;11.82;8.57;;;;;9.80;100619.00;;;;5104328;28;20278;-77
2020/12/09 01:10:06;;;;;;;14.57;8.63;;;;;9.80;100620.00;;;;5088840;28;20584;-77
2020/12/09 01:12:34;;;;;;;13.52;8.13;;;;;9.80;100622.00;;;;5088960;28;20201;-78
2020/12/09 01:15:01;;;;;;;12.02;7.57;;;;;9.80;100627.00;;;;5089188;28;20553;-77
2020/12/09 01:17:28;;;;;;;11.30;7.88;;;;;9.80;100628.00;;;;5093265;28;20950;-77
2020/12/09 01:19:54;;;;;;;12.25;8.40;;;;;9.80;100631.00;;;;5098321;28;20213;-77
2020/12/09 01:22:22;;;;;;;13.95;7.93;;;;;9.80;100639.00;;;;5095258;28;20201;-77
2020/12/09 01:24:49;;;;;;;12.82;8.15;;;;;9.80;100639.00;;;;5109232;28;20701;-77
2020/12/09 01:27:15;;;;;;;11.93;8.45;;;;;9.80;100640.00;;;;5106089;28;20483;-77
2020/12/09 01:29:42;;;;;;;10.25;7.18;;;;;9.80;100641.00;;;;5088725;28;20688;-77
2020/12/09 01:32:09;;;;;;;11.70;7.30;;;;;9.80;100645.00;;;;5089039;28;20191;-77
2020/12/09 01:34:36;;;;;;;13.13;7.68;;;;;9.80;100649.00;;;;5097510;28;20194;-77
2020/12/09 01:37:02;;;;;;;11.50;7.38;;;;;9.80;100642.00;;;;5097053;28;21060;-77
2020/12/09 01:39:30;;;;;;;13.13;8.13;;;;;9.80;100643.00;;;;5088697;28;20247;-77
2020/12/09 01:41:57;;;;;;;11.50;7.75;;;;;9.80;100636.00;;;;5089891;28;20202;-78
2020/12/09 01:44:24;;;;;;;11.50;6.97;;;;;9.80;100644.00;;;;5104521;28;20193;-77
2020/12/09 01:46:52;;;;;;;10.73;7.05;;;;;9.80;100639.00;;;;5108796;28;20235;-77
2020/12/09 01:49:19;;;;;;;12.98;7.85;;;;;9.80;100646.00;;;;5090700;28;20198;-77
2020/12/09 01:51:46;;;;;;;12.15;8.10;;;;;9.80;100642.00;;;;5101450;28;20197;-77
2020/12/09 01:54:13;;;;;;;11.32;6.80;;;;;9.80;100635.00;;;;5093319;28;20221;-77
2020/12/09 01:56:40;;;;;;;12.75;8.18;;;;;9.80;100644.00;;;;5088790;28;20190;-77
2020/12/09 01:59:07;;;;;;;11.27;6.95;;;;;9.80;100643.00;;;;5105430;28;20221;-77
2020/12/09 02:01:34;;;;;;;12.18;7.72;;;;;9.70;100642.00;;;;5088005;28;20194;-77
2020/12/09 02:04:01;;;;;;;12.15;7.25;;;;;9.70;100638.00;;;;5100922;28;20686;-77
2020/12/09 02:06:30;;;;;;;12.02;8.27;;;;;9.70;100644.00;;;;5105174;28;20209;-78
2020/12/09 02:08:56;;;;;;;12.75;7.78;;;;;9.70;100643.00;;;;5100822;28;20202;-77
2020/12/09 02:11:23;;;;;;;11.98;7.25;;;;;9.60;100645.00;;;;5091520;28;20197;-77
2020/12/09 02:13:51;;;;;;;12.70;8.23;;;;;9.60;100646.00;;;;5099423;28;20617;-77
2020/12/09 02:16:18;;;;;;;10.70;7.10;;;;;9.50;100642.00;;;;5106462;28;20202;-77
2020/12/09 02:18:45;;;;;;;11.50;7.70;;;;;9.50;100641.00;;;;5105864;28;20221;-77
2020/12/09 02:21:12;;;;;;;12.07;7.80;;;;;9.40;100637.00;;;;5088293;28;20198;-77
2020/12/09 02:23:39;;;;;;;12.07;8.38;;;;;9.40;100644.00;;;;5094331;28;20194;-77
2020/12/09 02:26:06;;;;;;;11.15;7.45;;;;;9.30;100634.00;;;;5087251;28;20221;-77
2020/12/09 02:28:33;;;;;;;12.82;8.18;;;;;9.20;100632.00;;;;5091699;28;20198;-77
2020/12/09 02:30:59;;;;;;;12.23;7.82;;;;;9.20;100636.00;;;;5087914;28;20202;-77
2020/12/09 02:33:26;;;;;;;11.25;7.85;;;;;9.10;100636.00;;;;5091130;28;20191;-77
2020/12/09 02:35:53;;;;;;;9.00;6.65;;;;;9.10;100641.00;;;;5100121;28;20202;-77
2020/12/09 02:38:20;;;;;;;12.25;7.43;;;;;9.00;100636.00;;;;5088956;28;20194;-77
2020/12/09 02:40:47;;;;;;;11.07;6.78;;;;;9.00;100648.00;;;;5087930;28;20198;-77
2020/12/09 02:43:14;;;;;;;12.55;7.60;;;;;8.90;100647.00;;;;5091065;28;20555;-78
2020/12/09 02:45:41;;;;;;;12.20;7.93;;;;;8.90;100648.00;;;;5087206;28;20680;-77
2020/12/09 02:48:07;;;;;;;12.18;7.35;;;;;8.90;100652.00;;;;5089012;28;20214;-77
2020/12/09 02:50:34;;;;;;;11.25;7.05;;;;;8.80;100657.00;;;;5107056;28;20568;-77
2020/12/09 02:53:01;;;;;;;12.40;7.75;;;;;8.80;100643.00;;;;5091406;28;20225;-77
2020/12/09 02:55:27;;;;;;;10.55;7.20;;;;;8.80;100640.00;;;;5107949;28;20194;-77
2020/12/09 02:57:55;;;;;;;10.23;6.80;;;;;8.80;100651.00;;;;5098233;28;20238;-77
2020/12/09 03:00:22;;;;;;;10.68;6.90;;;;;8.80;100647.00;;;;5068003;28;20202;-77
2020/12/09 03:02:48;;;;;;;11.98;7.80;;;;;8.80;100649.00;;;;5085259;28;20194;-77
2020/12/09 03:05:15;;;;;;;10.93;7.05;;;;;8.80;100655.00;;;;5068357;28;20970;-77
2020/12/09 03:07:42;;;;;;;10.88;7.13;;;;;8.80;100655.00;;;;5090330;28;20729;-77
2020/12/09 03:10:08;;;;;;;10.75;7.10;;;;;8.80;100661.00;;;;5090383;28;20203;-77
2020/12/09 03:12:35;;;;;;;10.57;7.18;;;;;8.80;100656.00;;;;5093554;28;20200;-77
2020/12/09 03:15:04;;;;;;;10.98;7.30;;;;;8.80;100662.00;;;;5107568;28;20193;-77
2020/12/09 03:17:30;;;;;;;11.15;7.30;;;;;8.80;100661.00;;;;5102485;28;20213;-77
2020/12/09 03:19:57;;;;;;;11.80;7.28;;;;;8.90;100661.00;;;;5091208;28;20198;-77
2020/12/09 03:22:24;;;;;;;12.48;8.27;;;;;8.90;100665.00;;;;5095981;28;20205;-77
2020/12/09 03:24:50;;;;;;;11.43;7.20;;;;;8.90;100670.00;;;;5111531;28;20204;-77
2020/12/09 03:27:17;;;;;;;10.18;6.80;;;;;8.90;100660.00;;;;5105959;28;20222;-77
2020/12/09 03:29:44;;;;;;;9.90;6.78;;;;;8.90;100660.00;;;;5071153;28;20210;-77
2020/12/09 03:32:12;;;;;;;9.90;6.95;;;;;9.00;100660.00;;;;5075862;28;20205;-76
2020/12/09 03:34:38;;;;;;;12.13;7.88;;;;;9.00;100663.00;;;;5090652;28;20198;-77
2020/12/09 03:37:05;;;;;;;13.82;6.85;;;;;9.00;100662.00;;;;5088883;28;20758;-77
2020/12/09 03:39:32;;;;;;;12.07;7.50;;;;;9.00;100669.00;;;;5104063;28;20210;-77
2020/12/09 03:41:58;;;;;;;9.88;7.10;;;;;9.10;100669.00;;;;5109388;28;20283;-77
2020/12/09 03:44:25;;;;;;;15.27;7.80;;;;;9.10;100664.00;;;;5111139;28;20194;-77
2020/12/09 03:46:56;;;;;;;12.88;7.30;;;;;9.10;100663.00;;;;5110730;28;20221;-77
2020/12/09 03:49:24;;;;;;;16.17;8.50;;;;;9.10;100679.00;;;;5077523;28;20194;-77
2020/12/09 03:51:51;;;;;;;14.77;9.05;;;;;9.10;100675.00;;;;5090616;28;20201;-78
2020/12/09 03:54:17;;;;;;;16.00;8.85;;;;;9.20;100674.00;;;;5090117;28;20570;-77
2020/12/09 03:56:44;;;;;;;11.07;6.80;;;;;9.20;100671.00;;;;5090092;28;20202;-77
2020/12/09 03:59:11;;;;;;;12.25;7.72;;;;;9.20;100668.00;;;;5091095;28;20231;-77
2020/12/09 04:01:37;;;;;;;15.18;8.00;;;;;9.20;100671.00;;;;5090503;28;20198;-77
2020/12/09 04:04:04;;;;;;;19.27;8.05;;;;;9.30;100673.00;;;;5094210;28;20205;-77
2020/12/09 04:06:32;;;;;;;16.35;8.02;;;;;9.30;100676.00;;;;5093018;28;20205;-77
2020/12/09 04:08:58;;;;;;;14.13;7.97;;;;;9.30;100681.00;;;;5102956;28;20881;-78
2020/12/09 04:11:25;;;;;;;18.38;8.02;;;;;9.30;100683.00;;;;5107937;28;20666;-77
2020/12/09 04:13:52;;;;;;;18.48;7.60;;;;;9.30;100684.00;;;;5095492;28;20262;-77
2020/12/09 04:16:19;;;;;;;11.40;7.30;;;;;9.30;100679.00;;;;5090296;28;20198;-77
2020/12/09 04:18:45;;;;;;;12.93;7.15;;;;;9.30;100686.00;;;;5082464;28;20195;-77
2020/12/09 04:21:12;;;;;;;13.60;7.45;;;;;9.40;100686.00;;;;5073485;28;20616;-78
2020/12/09 04:23:40;;;;;;;12.98;7.20;;;;;9.40;100685.00;;;;5097764;28;20195;-77
2020/12/09 04:26:06;;;;;;;12.15;6.95;;;;;9.40;100694.00;;;;5084612;28;20198;-77
2020/12/09 04:28:33;;;;;;;13.80;7.05;;;;;9.40;100684.00;;;;5099717;28;20218;-77
2020/12/09 04:31:00;;;;;;;13.70;6.65;;;;;9.40;100691.00;;;;5106656;28;20201;-77
2020/12/09 04:33:28;;;;;;;15.38;7.07;;;;;9.40;100692.00;;;;5098722;28;21013;-77
2020/12/09 04:35:55;;;;;;;15.48;7.57;;;;;9.40;100696.00;;;;5109601;28;20198;-77
2020/12/09 04:38:22;;;;;;;9.18;6.43;;;;;9.40;100695.00;;;;5091273;28;20561;-77
2020/12/09 04:40:50;;;;;;;21.42;7.43;;;;;9.40;100694.00;;;;5092516;28;20202;-77
2020/12/09 04:43:17;;;;;;;22.00;7.15;;;;;9.40;100692.00;;;;5090250;28;20671;-78
2020/12/09 04:45:44;;;;;;;22.23;8.60;;;;;9.40;100701.00;;;;5089135;28;20409;-77
2020/12/09 04:48:12;;;;;;;12.02;6.65;;;;;9.40;100694.00;;;;5110419;28;20275;-78
2020/12/09 04:51:09;;;;;;;14.75;7.35;;;;;9.30;100693.00;;;;5109706;28;20208;-77
2020/12/09 04:53:35;;;;;;;12.52;6.82;;;;;9.40;100690.00;;;;5084628;28;20221;-77
2020/12/09 04:56:03;;;;;;;13.50;6.97;;;;;9.40;100681.00;;;;5091912;28;20205;-77
2020/12/09 04:58:40;;;;;;;18.63;8.73;;;;;9.30;100687.00;;;;5093853;28;20222;-77
2020/12/09 05:01:08;;;;;;;18.52;7.82;;;;;9.40;100695.00;;;;5090594;28;20193;-77
2020/12/09 05:03:42;;;;;;;16.98;8.65;;;;;9.30;100692.00;;;;5099004;28;20197;-77
2020/12/09 05:06:10;;;;;;;12.43;7.22;;;;;9.30;100697.00;;;;5090585;28;20199;-77
2020/12/09 05:08:38;;;;;;;24.67;8.00;;;;;9.30;100699.00;;;;5092727;28;20306;-77
2020/12/09 05:11:08;;;;;;;17.88;8.80;;;;;9.30;100701.00;;;;5093316;28;20674;-77
2020/12/09 05:13:36;;;;;;;22.40;7.47;;;;;9.30;100704.00;;;;5080142;28;20661;-77
2020/12/09 05:16:03;;;;;;;17.50;8.00;;;;;9.20;100709.00;;;;5082679;28;20623;-77
2020/12/09 05:18:41;;;;;;;28.48;7.43;;;;;9.10;100713.00;;;;5089390;28;20210;-77
2020/12/09 05:21:12;;;;;;;14.32;8.30;;;;;9.20;100715.00;;;;5091620;28;20189;-77
2020/12/09 05:23:45;;;;;;;21.08;9.10;;;;;9.10;100716.00;;;;5109064;28;20193;-77
2020/12/09 05:26:19;;;;;;;21.85;8.80;;;;;9.10;100725.00;;;;5107030;28;20202;-78
2020/12/09 05:28:46;;;;;;;19.98;7.43;;;;;9.10;100732.00;;;;5106907;28;20213;-77
2020/12/09 05:31:23;;;;;;;23.63;7.47;;;;;8.90;100725.00;;;;5108822;28;20204;-77
2020/12/09 05:33:52;;;;;;;10.73;6.68;;;;;9.00;100725.00;;;;5091225;28;20194;-77
2020/12/09 05:36:18;;;;;;;15.85;6.43;;;;;8.90;100730.00;;;;5090874;28;20210;-77
2020/12/09 05:38:45;;;;;;;17.30;7.25;;;;;8.90;100738.00;;;;5088793;28;20198;-77
2020/12/09 05:41:13;;;;;;;16.40;5.93;;;;;8.90;100731.00;;;;5092652;28;20197;-77
2020/12/09 05:43:44;;;;;;;10.98;6.68;;;;;8.80;100735.00;;;;5091996;28;20211;-77
2020/12/09 05:46:11;;;;;;;10.38;6.80;;;;;8.80;100740.00;;;;5093125;28;20194;-77
2020/12/09 05:48:38;;;;;;;13.35;6.57;;;;;8.80;100741.00;;;;5108852;28;20587;-77
2020/12/09 05:51:06;;;;;;;18.38;6.35;;;;;8.70;100735.00;;;;5105172;28;20217;-77
2020/12/09 05:53:35;;;;;;;11.10;5.88;;;;;8.70;100737.00;;;;5088258;28;20225;-77
2020/12/09 05:56:12;;;;;;;10.93;6.38;;;;;8.60;100729.00;;;;5090293;28;20687;-77
2020/12/09 05:58:41;;;;;;;18.40;6.22;;;;;8.60;100730.00;;;;5091891;28;20232;-77
2020/12/09 06:01:10;;;;;;;9.25;6.25;;;;;8.60;100724.00;;;;5092356;28;20554;-77
2020/12/09 06:03:39;;;;;;;16.40;6.30;;;;;8.50;100734.00;;;;5106319;28;20196;-77
2020/12/09 06:06:14;;;;;;;23.67;7.07;;;;;8.40;100735.00;;;;5086078;28;20225;-77
2020/12/09 06:08:42;;;;;;;12.10;6.32;;;;;8.40;100744.00;;;;5088489;28;20225;-77
2020/12/09 06:11:11;;;;;;;13.20;7.10;;;;;8.40;100734.00;;;;5091719;28;20203;-77
2020/12/09 06:13:37;;;;;;;14.98;6.57;;;;;8.40;100749.00;;;;5097668;28;20193;-78
2020/12/09 06:16:06;;;;;;;11.93;5.90;;;;;8.30;100741.00;;;;5103123;28;20208;-77
2020/12/09 06:18:35;;;;;;;18.95;6.30;;;;;8.30;100746.00;;;;5100667;28;20202;-77
2020/12/09 06:21:02;;;;;;;11.25;6.82;;;;;8.30;100743.00;;;;5089169;28;20202;-77
2020/12/09 06:23:30;;;;;;;9.63;6.57;;;;;8.30;100752.00;;;;5087710;28;21024;-77
2020/12/09 06:26:00;;;;;;;13.77;5.85;;;;;8.20;100749.00;;;;5085462;28;20195;-77
2020/12/09 06:28:29;;;;;;;15.65;7.07;;;;;8.20;100754.00;;;;5072966;28;20236;-77
2020/12/09 06:30:58;;;;;;;16.85;5.68;;;;;8.20;100751.00;;;;5090125;28;20252;-77
2020/12/09 06:33:40;;;;;;;19.10;7.70;;;;;8.10;100764.00;;;;5087602;28;20198;-77
2020/12/09 06:36:17;;;;;;;22.70;5.78;;;;;8.10;100760.00;;;;5082732;28;20205;-77
2020/12/09 06:39:19;;;;;;;18.05;6.07;;;;;8.10;100770.00;;;;5099699;28;20212;-77
2020/12/09 06:42:08;;;;;;;10.48;5.88;;;;;8.00;100758.00;;;;5075295;28;20675;-78
2020/12/09 06:44:48;;;;;;;11.05;4.90;;;;;8.00;100761.00;;;;5088473;28;20206;-78
2020/12/09 06:47:14;;;;;;;24.73;6.22;;;;;8.00;100769.00;;;;5077090;28;20222;-77
2020/12/09 06:49:44;;;;;;;12.00;6.43;;;;;7.90;100776.00;;;;5090342;28;20193;-77
2020/12/09 06:52:36;;;;;;;15.70;5.72;;;;;7.80;100779.00;;;;5096323;28;20197;-76
2020/12/09 06:55:05;;;;;;;9.55;5.93;;;;;7.80;100781.00;;;;5097990;28;20198;-78
2020/12/09 06:57:35;;;;;;;24.95;7.72;;;;;7.70;100775.00;;;;5091374;28;20225;-77
2020/12/09 07:00:23;;;;;;;18.92;5.93;;;;;7.60;100775.00;;;;5089914;28;20198;-77
2020/12/09 07:02:54;;;;;;;10.55;6.45;;;;;7.60;100771.00;;;;5091712;28;20683;-77
2020/12/09 07:05:27;;;;;;;15.93;7.18;;;;;7.50;100764.00;;;;5096010;28;20278;-78
2020/12/09 07:08:03;;;;;;;11.68;6.20;;;;;7.50;100770.00;;;;5091290;28;20222;-76
2020/12/09 07:10:32;;;;;;;11.88;6.32;;;;;7.50;100770.00;;;;5087799;28;20287;-77
2020/12/09 07:13:07;;;;;;;11.25;6.20;;;;;7.40;100763.00;;;;5090692;28;20586;-77
2020/12/09 07:15:35;;;;;;;13.88;7.10;;;;;7.50;100766.00;;;;5100317;28;20677;-76
2020/12/09 07:18:01;;;;;;;12.32;6.50;;;;;7.50;100770.00;;;;5091048;28;20217;-77
2020/12/09 07:20:29;;;;;;;14.23;7.65;;;;;7.50;100775.00;;;;5091707;28;20758;-76
2020/12/09 07:22:56;;;;;;;12.65;7.63;;;;;7.50;100768.00;;;;5091348;28;20205;-76
2020/12/09 07:25:23;;;;;;;11.25;6.78;;;;;7.50;100781.00;;;;5099872;28;20190;-76
2020/12/09 07:27:50;;;;;;;10.77;6.90;;;;;7.50;100775.00;;;;5096997;28;20226;-76
2020/12/09 07:30:19;;;;;;;11.50;6.80;;;;;7.50;100782.00;;;;5107470;28;20216;-77
2020/12/09 07:32:48;;;;;;;13.57;7.47;;;;;7.50;100781.00;;;;5110203;28;20209;-77
2020/12/09 07:35:17;;;;;;;12.43;7.38;;;;;7.50;100786.00;;;;5104183;28;20205;-77
2020/12/09 07:37:47;;;;;;;12.77;6.60;;;;;7.60;100791.00;;;;5111812;28;20314;-76
2020/12/09 07:40:17;;;;;;;13.88;6.95;;;;;7.50;100784.00;;;;5095559;28;20764;-76
2020/12/09 07:42:44;;;;;;;11.20;6.68;;;;;7.60;100784.00;;;;5089759;28;20195;-77
2020/12/09 07:45:16;;;;;;;16.05;8.18;;;;;7.60;100787.00;;;;5088740;28;20210;-77
2020/12/09 07:47:44;;;;;;;15.88;7.22;;;;;7.50;100780.00;;;;5086612;28;20225;-77
2020/12/09 07:50:11;;;;;;;15.23;7.65;;;;;7.50;100781.00;;;;5087711;28;20210;-77
2020/12/09 07:52:40;;;;;;;32.63;7.50;;;;;7.50;100785.00;;;;5099660;28;20221;-77
2020/12/09 07:55:12;;;;;;;18.30;7.57;;;;;7.50;100787.00;;;;5091909;28;20198;-76
2020/12/09 07:57:40;;;;;;;11.40;7.22;;;;;7.50;100789.00;;;;5088763;28;20242;-77
2020/12/09 08:00:09;;;;;;;13.20;7.53;;;;;7.50;100793.00;;;;5089937;28;20202;-76
2020/12/09 08:02:39;;;;;;;12.73;7.47;;;;;7.50;100798.00;;;;5097975;28;20206;-77
2020/12/09 08:05:12;;;;;;;12.90;8.02;;;;;7.50;100804.00;;;;5091688;28;20198;-77
2020/12/09 08:08:05;;;;;;;14.00;7.55;;;;;7.40;100810.00;;;;5084388;28;20225;-78
2020/12/09 08:10:34;;;;;;;16.88;8.02;;;;;7.50;100807.00;;;;5070152;28;20202;-77
2020/12/09 08:13:04;;;;;;;12.77;7.82;;;;;7.50;100814.00;;;;5093002;28;20210;-77
2020/12/09 08:15:32;;;;;;;16.30;8.00;;;;;7.50;100814.00;;;;5087098;28;20205;-76
2020/12/09 08:18:00;;;;;;;12.18;7.38;;;;;7.50;100816.00;;;;5092000;28;20194;-77
2020/12/09 08:20:27;;;;;;;13.23;7.75;;;;;7.60;100820.00;;;;5090842;28;20195;-76
2020/12/09 08:22:56;;;;;;;16.80;7.88;;;;;7.60;100812.00;;;;5090009;28;20205;-76
2020/12/09 08:25:24;;;;;;;13.75;7.97;;;;;7.60;100816.00;;;;5089529;28;20198;-77
2020/12/09 08:27:52;;;;;;;14.73;7.72;;;;;7.60;100816.00;;;;5090760;28;20226;-76
2020/12/09 08:30:24;;;;;;;20.40;9.70;;;;;7.60;100813.00;;;;5095555;28;20191;-76
2020/12/09 08:32:55;;;;;;;15.95;9.30;;;;;7.60;100809.00;;;;5089875;28;20202;-77
2020/12/09 08:35:22;;;;;;;14.23;8.95;;;;;7.60;100818.00;;;;5091154;28;20206;-77
2020/12/09 08:37:49;;;;;;;18.83;9.77;;;;;7.60;100811.00;;;;5089428;28;20202;-76
2020/12/09 08:40:16;;;;;;;17.17;8.90;;;;;7.60;100812.00;;;;5094328;28;20202;-76
2020/12/09 08:42:52;;;;;;;17.35;9.27;;;;;7.50;100809.00;;;;5090644;28;20210;-77
2020/12/09 08:45:19;;;;;;;14.40;8.98;;;;;7.60;100812.00;;;;5106948;28;20197;-77
2020/12/09 08:47:46;;;;;;;21.15;8.60;;;;;7.60;100805.00;;;;5101629;28;20214;-76
2020/12/09 08:50:13;;;;;;;16.27;9.10;;;;;7.60;100811.00;;;;5090125;28;20219;-76
2020/12/09 08:52:40;;;;;;;18.88;8.60;;;;;7.60;100813.00;;;;5089703;28;20233;-77
2020/12/09 08:55:07;;;;;;;18.85;9.85;;;;;7.60;100816.00;;;;5096589;28;20914;-77
2020/12/09 08:57:33;;;;;;;22.08;9.65;;;;;7.60;100807.00;;;;5103690;28;20291;-76
2020/12/09 09:00:01;;;;;;;13.52;8.20;;;;;7.50;100809.00;;;;5095245;28;20210;-76
2020/12/09 09:02:28;;;;;;;15.07;8.25;;;;;7.60;100807.00;;;;5093390;28;20198;-76
2020/12/09 09:04:54;;;;;;;11.77;7.15;;;;;7.60;100804.00;;;;5091539;28;20194;-76
2020/12/09 09:07:21;;;;;;;15.75;7.03;;;;;7.60;100797.00;;;;5092199;28;20218;-76
2020/12/09 09:09:48;;;;;;;15.30;7.90;;;;;7.50;100797.00;;;;5088376;28;20202;-76
2020/12/09 09:12:15;;;;;;;13.77;7.72;;;;;7.60;100799.00;;;;5092771;28;20197;-76
2020/12/09 09:14:42;;;;;;;17.10;8.05;;;;;7.60;100813.00;;;;5091722;28;20204;-76
2020/12/09 09:17:09;;;;;;;15.40;8.60;;;;;7.50;100802.00;;;;5084409;28;20201;-76
2020/12/09 09:19:36;;;;;;;13.80;8.27;;;;;7.50;100812.00;;;;5092019;28;20206;-76
2020/12/09 09:22:03;;;;;;;15.45;8.25;;;;;7.50;100813.00;;;;5088471;28;20613;-76
2020/12/09 09:24:30;;;;;;;12.98;7.60;;;;;7.50;100809.00;;;;5099303;28;20197;-76
2020/12/09 09:26:56;;;;;;;14.00;8.43;;;;;7.50;100821.00;;;;5090819;28;20206;-76
2020/12/09 09:29:23;;;;;;;14.25;8.13;;;;;7.50;100813.00;;;;5084982;28;20210;-77
2020/12/09 09:31:50;;;;;;;15.45;8.40;;;;;7.60;100807.00;;;;5088753;28;20290;-76
2020/12/09 09:34:17;;;;;;;14.25;7.70;;;;;7.60;100806.00;;;;5089523;28;20201;-76
2020/12/09 09:36:44;;;;;;;14.75;8.48;;;;;7.60;100803.00;;;;5088443;28;20195;-76
2020/12/09 09:39:11;;;;;;;15.05;7.95;;;;;7.60;100807.00;;;;5090929;28;20240;-77
2020/12/09 09:41:39;;;;;;;12.75;7.03;;;;;7.60;100811.00;;;;5102640;28;20200;-77
2020/12/09 09:44:06;;;;;;;12.82;7.35;;;;;7.60;100804.00;;;;5088879;28;20247;-76
2020/12/09 09:46:33;;;;;;;12.70;7.30;;;;;7.70;100804.00;;;;5089656;28;20214;-76
2020/12/09 09:49:00;;;;;;;14.23;8.20;;;;;7.70;100805.00;;;;5099471;28;20253;-76
2020/12/09 09:51:27;;;;;;;13.63;7.63;;;;;7.70;100806.00;;;;5092633;28;20738;-76
2020/12/09 09:53:55;;;;;;;13.35;7.75;;;;;7.70;100800.00;;;;5091674;28;20218;-76
2020/12/09 09:56:21;;;;;;;12.73;7.40;;;;;7.70;100797.00;;;;5085899;28;20202;-77
2020/12/09 09:58:48;;;;;;;12.23;7.47;;;;;7.80;100808.00;;;;5087439;28;20226;-78
2020/12/09 10:01:15;;;;;;;13.55;8.43;;;;;7.80;100805.00;;;;5087745;28;20667;-76
2020/12/09 10:03:42;;;;;;;14.10;8.95;;;;;7.80;100810.00;;;;5087523;28;20206;-78
2020/12/09 10:06:09;;;;;;;11.07;6.60;;;;;7.90;100820.00;;;;5088190;28;20202;-78
2020/12/09 10:08:37;;;;;;;12.30;7.40;;;;;7.90;100820.00;;;;5088231;28;20226;-79
2020/12/09 10:11:04;;;;;;;13.38;8.57;;;;;7.90;100811.00;;;;5088868;28;20205;-79
2020/12/09 10:13:31;;;;;;;15.00;8.40;;;;;8.00;100800.00;;;;5075897;28;20194;-79
2020/12/09 10:15:58;;;;;;;13.57;7.32;;;;;8.00;100800.00;;;;5083158;28;20665;-79
2020/12/09 10:18:25;;;;;;;15.05;7.63;;;;;8.00;100799.00;;;;5090109;28;20198;-79
2020/12/09 10:20:52;;;;;;;14.57;7.88;;;;;8.00;100797.00;;;;5100592;28;20210;-78
2020/12/09 10:23:19;;;;;;;12.95;7.38;;;;;8.00;100803.00;;;;5089446;28;20210;-79
2020/12/09 10:25:47;;;;;;;20.30;8.38;;;;;8.00;100800.00;;;;5098651;28;20193;-78
2020/12/09 10:28:13;;;;;;;18.30;8.00;;;;;8.00;100800.00;;;;5090332;28;20229;-77
2020/12/09 10:30:45;;;;;;;13.85;7.95;;;;;8.10;100801.00;;;;5096027;28;20205;-77
2020/12/09 10:33:12;;;;;;;12.02;6.55;;;;;8.10;100803.00;;;;5094625;28;20297;-77
2020/12/09 10:35:42;;;;;;;15.15;8.65;;;;;8.10;100797.00;;;;5091361;28;20222;-77
2020/12/09 10:38:09;;;;;;;14.75;8.20;;;;;8.10;100797.00;;;;5095978;28;20194;-78
2020/12/09 10:40:36;;;;;;;14.90;8.15;;;;;8.10;100797.00;;;;5086843;28;20192;-76
2020/12/09 10:43:04;;;;;;;13.77;7.82;;;;;8.10;100785.00;;;;5087382;28;20217;-77
2020/12/09 10:45:30;;;;;;;14.95;7.88;;;;;8.20;100793.00;;;;5087810;28;20190;-78
2020/12/09 10:47:57;;;;;;;15.52;8.10;;;;;8.20;100793.00;;;;5091322;28;20691;-78
2020/12/09 10:50:24;;;;;;;16.42;8.88;;;;;8.20;100797.00;;;;5091464;28;20198;-77
2020/12/09 10:52:53;;;;;;;16.98;8.25;;;;;8.20;100796.00;;;;5085374;28;20666;-78
2020/12/09 10:55:23;;;;;;;14.32;7.25;;;;;8.20;100778.00;;;;5087170;28;20202;-77
2020/12/09 10:57:49;;;;;;;15.00;7.82;;;;;8.30;100777.00;;;;5086012;28;20275;-77
2020/12/09 11:00:17;;;;;;;15.10;8.55;;;;;8.30;100776.00;;;;5087202;28;20558;-77
2020/12/09 11:02:44;;;;;;;14.32;7.93;;;;;8.30;100765.00;;;;5087917;28;20483;-78
2020/12/09 11:05:10;;;;;;;16.23;7.97;;;;;8.40;100772.00;;;;5087381;28;20201;-78
2020/12/09 11:07:37;;;;;;;15.85;8.07;;;;;8.40;100778.00;;;;5096221;28;20210;-78
2020/12/09 11:10:04;;;;;;;12.88;6.95;;;;;8.40;100778.00;;;;5087612;28;20198;-78
2020/12/09 11:12:31;;;;;;;15.70;8.30;;;;;8.40;100784.00;;;;5086694;28;20278;-78
2020/12/09 11:14:58;;;;;;;15.73;8.02;;;;;8.40;100784.00;;;;5084694;28;20194;-79
2020/12/09 11:17:26;;;;;;;15.82;7.70;;;;;8.40;100788.00;;;;5076240;28;20202;-78
2020/12/09 11:19:52;;;;;;;17.90;8.90;;;;;8.40;100776.00;;;;5076904;28;20194;-78
2020/12/09 11:22:21;;;;;;;18.27;8.48;;;;;8.40;100780.00;;;;5090255;28;20201;-79
2020/12/09 11:24:48;;;;;;;19.60;8.82;;;;;8.40;100779.00;;;;5089361;28;20194;-79
2020/12/09 11:27:15;;;;;;;19.98;9.48;;;;;8.40;100778.00;;;;5087579;28;20205;-78
2020/12/09 11:29:42;;;;;;;16.05;7.15;;;;;8.40;100772.00;;;;5087724;28;20202;-78
2020/12/09 11:32:09;;;;;;;19.10;8.63;;;;;8.40;100778.00;;;;5087747;28;20209;-78
2020/12/09 11:34:36;;;;;;;18.17;9.27;;;;;8.50;100781.00;;;;5094511;28;20204;-78
2020/12/09 11:37:04;;;;;;;20.48;9.70;;;;;8.50;100777.00;;;;5092143;28;20199;-77
2020/12/09 11:39:31;;;;;;;18.17;8.93;;;;;8.50;100775.00;;;;5091620;28;20205;-78
2020/12/09 11:41:59;;;;;;;18.33;7.55;;;;;8.50;100774.00;;;;5098749;28;20201;-78
2020/12/09 11:44:26;;;;;;;16.27;8.48;;;;;8.50;100774.00;;;;5089883;28;20217;-78
2020/12/09 11:46:53;;;;;;;18.55;8.40;;;;;8.50;100773.00;;;;5090195;28;20198;-78
2020/12/09 11:49:19;;;;;;;17.98;8.75;;;;;8.50;100765.00;;;;5090230;28;20240;-78
2020/12/09 11:51:50;;;;;;;19.90;8.45;;;;;8.40;100760.00;;;;5090310;28;20202;-79
2020/12/09 11:54:17;;;;;;;24.75;9.50;;;;;8.40;100755.00;;;;5096997;28;20276;-78
2020/12/09 11:56:44;;;;;;;17.85;8.23;;;;;8.50;100761.00;;;;5092347;28;20229;-78
2020/12/09 11:59:11;;;;;;;19.15;9.15;;;;;8.50;100753.00;;;;5090524;28;20309;-78
2020/12/09 12:01:38;;;;;;;23.02;9.27;;;;;8.50;100755.00;;;;5092423;28;20225;-78
2020/12/09 12:04:05;;;;;;;21.13;10.07;;;;;8.60;100753.00;;;;5090016;28;20199;-79
2020/12/09 12:06:31;;;;;;;22.30;10.20;;;;;8.60;100750.00;;;;5087997;28;20217;-79
2020/12/09 12:08:59;;;;;;;27.73;11.70;;;;;8.60;100760.00;;;;5089322;28;20233;-78
2020/12/09 12:11:27;;;;;;;20.77;9.55;;;;;8.70;100750.00;;;;5089143;28;20209;-79
2020/12/09 12:13:54;;;;;;;18.65;8.57;;;;;8.70;100750.00;;;;5090168;28;20206;-78